createdAt,value
2022-09-10T00:01:31.558Z,4.00
2022-09-10T00:03:59.522Z,3.85
2022-09-10T00:06:27.554Z,4.28
2022-09-10T00:08:57.291Z,3.70
2022-09-10T00:11:26.073Z,3.97
2022-09-10T00:13:55.083Z,3.77
2022-09-10T00:16:22.745Z,4.00
2022-09-10T00:18:51.051Z,3.80
2022-09-10T00:21:20.851Z,3.50
2022-09-10T00:23:49.049Z,3.53
2022-09-10T00:26:21.680Z,4.07
2022-09-10T00:28:50.089Z,3.90
2022-09-10T00:31:19.269Z,4.20
2022-09-10T00:33:46.952Z,3.83
2022-09-10T00:36:15.657Z,3.92
2022-09-10T00:38:43.592Z,3.93
2022-09-10T00:41:11.259Z,3.67
2022-09-10T00:43:55.716Z,4.00
2022-09-10T00:46:37.912Z,4.30
2022-09-10T00:49:14.610Z,4.53
2022-09-10T00:51:42.276Z,4.20
2022-09-10T00:54:11.045Z,4.00
2022-09-10T00:56:39.116Z,3.90
2022-09-10T00:59:09.567Z,3.83
2022-09-10T01:01:39.498Z,3.83
2022-09-10T01:04:10.614Z,4.28
2022-09-10T01:06:38.583Z,4.00
2022-09-10T01:09:06.737Z,4.03
2022-09-10T01:11:46.698Z,3.90
2022-09-10T01:14:36.139Z,4.40
2022-09-10T01:17:11.776Z,4.07
2022-09-10T01:20:00.553Z,4.50
2022-09-10T01:22:33.481Z,4.72
2022-09-10T01:25:04.921Z,4.50
2022-09-10T01:27:45.236Z,4.43
2022-09-10T01:30:15.741Z,4.57
2022-09-10T01:32:52.647Z,4.85
2022-09-10T01:35:23.080Z,5.35
2022-09-10T01:37:54.477Z,4.82
2022-09-10T01:40:29.540Z,4.95
2022-09-10T01:43:02.352Z,5.32
2022-09-10T01:45:30.735Z,5.03
2022-09-10T01:48:21.782Z,5.40
2022-09-10T01:50:57.135Z,5.22
2022-09-10T01:53:49.232Z,5.53
2022-09-10T01:56:27.242Z,5.35
2022-09-10T01:58:58.601Z,5.60
2022-09-10T02:01:29.878Z,5.97
2022-09-10T02:04:00.916Z,5.38
2022-09-10T02:06:31.519Z,6.25
2022-09-10T02:09:00.398Z,6.28
2022-09-10T02:11:28.123Z,5.90
2022-09-10T02:13:57.198Z,5.90
2022-09-10T02:16:28.389Z,6.30
2022-09-10T02:18:56.550Z,6.35
2022-09-10T02:21:24.548Z,7.13
2022-09-10T02:23:55.354Z,6.30
2022-09-10T02:26:23.107Z,6.53
2022-09-10T02:28:51.401Z,7.13
2022-09-10T02:31:20.414Z,7.33
2022-09-10T02:33:48.510Z,7.80
2022-09-10T02:36:16.152Z,7.65
2022-09-10T02:38:44.307Z,8.63
2022-09-10T02:41:11.857Z,8.43
2022-09-10T02:43:39.482Z,8.13
2022-09-10T02:46:07.997Z,8.23
2022-09-10T02:48:37.283Z,8.63
2022-09-10T02:51:05.325Z,8.90
2022-09-10T02:53:33.248Z,9.00
2022-09-10T02:56:01.006Z,9.17
2022-09-10T02:58:31.314Z,8.90
2022-09-10T03:01:07.009Z,9.27
2022-09-10T03:03:34.674Z,9.50
2022-09-10T03:06:04.099Z,9.70
2022-09-10T03:08:31.973Z,8.70
2022-09-10T03:10:59.851Z,9.73
2022-09-10T03:13:27.978Z,9.95
2022-09-10T03:15:55.846Z,9.70
2022-09-10T03:18:23.825Z,10.02
2022-09-10T03:20:52.349Z,9.55
2022-09-10T03:23:21.366Z,10.45
2022-09-10T03:25:49.971Z,10.30
2022-09-10T03:28:17.782Z,10.43
2022-09-10T03:30:45.399Z,9.80
2022-09-10T03:33:13.815Z,10.65
2022-09-10T03:35:41.410Z,10.73
2022-09-10T03:38:09.034Z,10.85
2022-09-10T03:40:38.091Z,10.33
2022-09-10T03:43:05.737Z,10.90
2022-09-10T03:45:33.581Z,10.07
2022-09-10T03:48:01.225Z,10.77
2022-09-10T03:50:28.843Z,10.67
2022-09-10T03:52:56.911Z,10.45
2022-09-10T03:55:25.468Z,10.80
2022-09-10T03:57:54.477Z,10.60
2022-09-10T04:00:22.091Z,10.95
2022-09-10T04:02:50.893Z,11.27
2022-09-10T04:05:19.021Z,10.63
2022-09-10T04:07:46.606Z,11.07
2022-09-10T04:10:14.284Z,10.73
2022-09-10T04:12:41.962Z,11.30
2022-09-10T04:15:12.606Z,10.80
2022-09-10T04:17:40.266Z,10.70
2022-09-10T04:20:09.284Z,10.70
2022-09-10T04:22:36.989Z,11.07
2022-09-10T04:25:05.058Z,11.02
2022-09-10T04:27:32.661Z,11.23
2022-09-10T04:30:00.394Z,11.30
2022-09-10T04:32:29.414Z,10.57
2022-09-10T04:34:57.015Z,11.02
2022-09-10T04:37:24.670Z,11.00
2022-09-10T04:39:52.285Z,11.02
2022-09-10T04:42:20.436Z,10.90
2022-09-10T04:44:49.068Z,11.27
2022-09-10T04:47:17.248Z,11.45
2022-09-10T04:49:46.414Z,10.23
2022-09-10T04:52:14.707Z,10.55
2022-09-10T04:54:42.477Z,10.73
2022-09-10T04:57:10.171Z,10.85
2022-09-10T04:59:38.303Z,10.02
2022-09-10T05:02:06.569Z,10.50
2022-09-10T05:04:35.101Z,11.43
2022-09-10T05:07:04.156Z,11.02
2022-09-10T05:09:33.468Z,10.87
2022-09-10T05:12:02.712Z,11.60
2022-09-10T05:14:30.545Z,11.53
2022-09-10T05:16:58.255Z,10.88
2022-09-10T05:19:25.866Z,10.70
2022-09-10T05:21:53.510Z,10.55
2022-09-10T05:24:22.503Z,10.40
2022-09-10T05:26:50.069Z,11.13
2022-09-10T05:29:18.384Z,9.48
2022-09-10T05:31:46.465Z,10.50
2022-09-10T05:34:14.083Z,10.68
2022-09-10T05:36:41.858Z,11.07
2022-09-10T05:39:09.507Z,10.25
2022-09-10T05:41:38.709Z,10.07
2022-09-10T05:44:06.447Z,10.60
2022-09-10T05:46:34.158Z,10.77
2022-09-10T05:49:01.756Z,10.52
2022-09-10T05:51:30.737Z,10.25
2022-09-10T05:53:58.734Z,9.40
2022-09-10T05:56:27.053Z,10.10
2022-09-10T05:58:56.107Z,10.75
2022-09-10T06:01:23.776Z,10.50
2022-09-10T06:03:51.825Z,9.30
2022-09-10T06:06:20.309Z,9.43
2022-09-10T06:08:52.264Z,9.97
2022-09-10T06:11:19.970Z,9.70
2022-09-10T06:13:47.728Z,9.98
2022-09-10T06:16:17.142Z,10.45
2022-09-10T06:18:44.877Z,10.57
2022-09-10T06:21:14.060Z,10.10
2022-09-10T06:23:42.076Z,10.73
2022-09-10T06:26:12.394Z,10.73
2022-09-10T06:28:40.490Z,10.87
2022-09-10T06:31:10.963Z,10.40
2022-09-10T06:33:40.028Z,10.80
2022-09-10T06:36:07.697Z,11.70
2022-09-10T06:38:36.004Z,9.93
2022-09-10T06:41:06.014Z,11.00
2022-09-10T06:43:36.241Z,10.55
2022-09-10T06:46:05.522Z,11.32
2022-09-10T06:48:38.571Z,11.10
2022-09-10T06:51:09.270Z,11.70
2022-09-10T06:53:37.846Z,10.65
2022-09-10T06:56:08.285Z,10.32
2022-09-10T06:58:36.354Z,11.30
2022-09-10T07:01:15.039Z,10.45
2022-09-10T07:03:43.812Z,10.70
2022-09-10T07:06:15.379Z,10.65
2022-09-10T07:08:43.291Z,10.88
2022-09-10T07:11:15.528Z,12.00
2022-09-10T07:13:44.172Z,11.55
2022-09-10T07:16:12.099Z,11.65
2022-09-10T07:18:40.201Z,10.40
2022-09-10T07:21:08.970Z,10.05
2022-09-10T07:23:39.398Z,10.63
2022-09-10T07:26:09.874Z,10.50
2022-09-10T07:28:38.345Z,10.77
2022-09-10T07:31:14.265Z,10.88
2022-09-10T07:33:42.365Z,11.00
2022-09-10T07:36:11.360Z,9.77
2022-09-10T07:38:41.284Z,10.68
2022-09-10T07:41:11.261Z,10.88
2022-09-10T07:43:39.798Z,9.75
2022-09-10T07:46:07.667Z,10.48
2022-09-10T07:48:35.536Z,10.23
2022-09-10T07:51:04.493Z,10.15
2022-09-10T07:53:32.243Z,9.60
2022-09-10T07:56:02.808Z,10.10
2022-09-10T07:58:31.759Z,9.63
2022-09-10T08:01:00.701Z,9.40
2022-09-10T08:03:28.630Z,8.90
2022-09-10T08:05:56.545Z,8.68
2022-09-10T08:08:24.924Z,9.35
2022-09-10T08:10:53.569Z,9.13
2022-09-10T08:13:22.651Z,8.25
2022-09-10T08:15:50.654Z,7.85
2022-09-10T08:18:18.410Z,8.43
2022-09-10T08:20:45.994Z,7.88
2022-09-10T08:23:13.643Z,7.10
2022-09-10T08:25:41.283Z,7.15
2022-09-10T08:28:09.026Z,6.30
2022-09-10T08:30:38.288Z,5.90
2022-09-10T08:33:05.932Z,4.95
2022-09-10T08:35:33.572Z,5.00
2022-09-10T08:38:01.198Z,5.10
2022-09-10T08:40:29.203Z,5.82
2022-09-10T08:42:56.877Z,5.77
2022-09-10T08:45:28.789Z,4.93
2022-09-10T08:48:02.254Z,5.28
2022-09-10T08:50:36.178Z,4.90
2022-09-10T08:53:08.684Z,4.65
2022-09-10T08:55:37.061Z,5.87
2022-09-10T08:58:12.408Z,4.35
2022-09-10T09:00:43.045Z,4.50
2022-09-10T09:03:17.289Z,4.28
2022-09-10T09:05:46.687Z,4.63
2022-09-10T09:08:17.101Z,4.50
2022-09-10T09:10:48.624Z,4.22
2022-09-10T09:13:27.572Z,5.27
2022-09-10T09:16:04.083Z,4.70
2022-09-10T09:18:42.835Z,4.70
2022-09-10T09:21:27.488Z,4.55
2022-09-10T09:24:12.649Z,5.05
2022-09-10T09:26:43.026Z,5.00
2022-09-10T09:29:14.765Z,4.60
2022-09-10T09:31:46.432Z,3.80
2022-09-10T09:34:20.211Z,4.18
2022-09-10T09:36:51.506Z,3.42
2022-09-10T09:39:25.450Z,4.20
2022-09-10T09:42:00.280Z,4.80
2022-09-10T09:44:32.319Z,4.10
2022-09-10T09:47:00.410Z,3.60
2022-09-10T09:49:30.001Z,3.45
2022-09-10T09:51:58.655Z,2.90
2022-09-10T09:57:20.457Z,2.77
2022-09-10T09:59:49.145Z,3.85
2022-09-10T10:02:19.671Z,3.10
2022-09-10T10:05:07.094Z,3.10
2022-09-10T10:07:36.417Z,2.85
2022-09-10T10:10:07.728Z,2.88
2022-09-10T10:12:36.621Z,2.15
2022-09-10T10:15:04.594Z,2.90
2022-09-10T10:17:38.150Z,2.83
2022-09-10T10:20:11.635Z,2.47
2022-09-10T10:22:40.541Z,2.08
2022-09-10T10:25:36.182Z,2.50
2022-09-10T10:28:03.923Z,2.25
2022-09-10T10:30:32.060Z,1.90
2022-09-10T10:33:01.780Z,1.95
2022-09-10T10:35:36.478Z,2.17
2022-09-10T10:38:28.394Z,1.80
2022-09-10T10:41:26.129Z,1.98
2022-09-10T10:44:03.065Z,2.50
2022-09-10T10:46:37.416Z,2.40
2022-09-10T10:49:11.126Z,2.43
2022-09-10T10:51:46.621Z,2.53
2022-09-10T10:54:28.408Z,2.28
2022-09-10T10:57:03.193Z,1.07
2022-09-10T10:59:41.735Z,1.85
2022-09-10T11:02:15.481Z,1.58
2022-09-10T11:04:45.834Z,1.88
2022-09-10T11:07:19.650Z,1.75
2022-09-10T11:09:53.209Z,1.13
2022-09-10T11:12:26.331Z,1.37
2022-09-10T11:14:57.385Z,1.17
2022-09-10T11:17:31.226Z,1.92
2022-09-10T11:20:27.317Z,3.23
2022-09-10T11:22:56.818Z,3.25
2022-09-10T11:25:28.232Z,4.30
2022-09-10T11:27:58.381Z,4.80
2022-09-10T11:30:26.001Z,4.53
2022-09-10T11:32:57.355Z,4.30
2022-09-10T11:35:28.386Z,3.90
2022-09-10T11:38:04.677Z,4.47
2022-09-10T11:40:36.311Z,4.28
2022-09-10T11:43:08.380Z,3.80
2022-09-10T11:45:44.353Z,3.60
2022-09-10T11:48:18.269Z,3.38
2022-09-10T11:50:50.721Z,3.70
2022-09-10T11:53:24.737Z,3.60
2022-09-10T11:56:05.123Z,4.32
2022-09-10T11:58:37.765Z,4.30
2022-09-10T12:01:09.899Z,4.05
2022-09-10T12:03:52.899Z,4.10
2022-09-10T12:06:23.784Z,4.50
2022-09-10T12:09:04.291Z,4.20
2022-09-10T12:11:38.498Z,4.63
2022-09-10T12:14:07.852Z,4.28
2022-09-10T12:16:39.078Z,4.85
2022-09-10T12:19:09.948Z,5.22
2022-09-10T12:21:44.084Z,5.10
2022-09-10T12:24:26.432Z,5.13
2022-09-10T12:26:55.400Z,5.32
2022-09-10T12:29:33.377Z,6.05
2022-09-10T12:32:29.608Z,6.70
2022-09-10T12:35:46.114Z,7.18
2022-09-10T12:38:48.329Z,6.60
2022-09-10T12:41:49.420Z,7.22
2022-09-10T12:44:54.131Z,7.55
2022-09-10T12:47:52.544Z,7.40
2022-09-10T12:50:31.377Z,7.90
2022-09-10T12:53:25.088Z,9.02
2022-09-10T12:56:02.076Z,8.83
2022-09-10T12:58:47.702Z,8.30
2022-09-10T13:01:25.493Z,8.50
2022-09-10T13:03:56.645Z,7.57
2022-09-10T13:06:35.812Z,7.38
2022-09-10T13:09:06.020Z,6.97
2022-09-10T13:11:35.507Z,7.28
2022-09-10T13:14:04.843Z,7.60
2022-09-10T13:16:42.364Z,8.23
2022-09-10T13:19:50.034Z,8.63
2022-09-10T13:23:01.348Z,8.90
2022-09-10T13:25:39.995Z,8.68
2022-09-10T13:28:45.066Z,9.60
2022-09-10T13:31:18.239Z,8.35
2022-09-10T13:34:14.174Z,8.07
2022-09-10T13:36:48.447Z,6.55
2022-09-10T13:39:53.864Z,5.95
2022-09-10T13:42:42.276Z,6.95
2022-09-10T13:45:22.654Z,5.82
2022-09-10T13:48:35.116Z,7.60
2022-09-10T13:51:12.634Z,6.50
2022-09-10T13:53:42.515Z,5.57
2022-09-10T13:56:17.776Z,5.43
2022-09-10T13:58:49.451Z,5.57
2022-09-10T14:01:17.220Z,4.78
2022-09-10T14:03:46.312Z,4.93
2022-09-10T14:06:17.882Z,4.90
2022-09-10T14:08:49.444Z,4.60
2022-09-10T14:11:19.464Z,3.70
2022-09-10T14:13:51.865Z,4.03
2022-09-10T14:16:26.179Z,3.85
2022-09-10T14:18:59.531Z,4.50
2022-09-10T14:21:28.059Z,4.85
2022-09-10T14:23:56.804Z,4.00
2022-09-10T14:26:27.281Z,4.53
2022-09-10T14:28:58.759Z,4.43
2022-09-10T14:31:33.394Z,4.32
2022-09-10T14:34:27.621Z,4.43
2022-09-10T14:36:55.469Z,4.10
2022-09-10T14:39:23.694Z,3.63
2022-09-10T14:42:27.294Z,3.92
2022-09-10T14:44:55.388Z,4.78
2022-09-10T14:47:29.867Z,5.35
2022-09-10T14:50:24.087Z,5.40
2022-09-10T14:52:51.784Z,4.45
2022-09-10T14:55:19.549Z,4.95
2022-09-10T14:57:49.041Z,4.80
2022-09-10T15:00:17.185Z,4.63
2022-09-10T15:02:44.786Z,5.32
2022-09-10T15:05:15.079Z,5.47
2022-09-10T15:07:42.831Z,4.65
2022-09-10T15:10:11.158Z,4.80
2022-09-10T15:12:40.789Z,5.78
2022-09-10T15:15:17.223Z,5.68
2022-09-10T15:17:45.405Z,5.25
2022-09-10T15:20:14.599Z,4.15
2022-09-10T15:22:42.252Z,4.63
2022-09-10T15:25:23.395Z,5.22
2022-09-10T15:27:51.123Z,6.65
2022-09-10T15:30:20.114Z,4.97
2022-09-10T15:32:48.217Z,4.63
2022-09-10T15:35:15.874Z,4.57
2022-09-10T15:37:43.506Z,4.93
2022-09-10T15:40:12.117Z,4.78
2022-09-10T15:42:39.792Z,5.43
2022-09-10T15:45:08.733Z,5.38
2022-09-10T15:47:37.760Z,4.90
2022-09-10T15:50:06.477Z,4.90
2022-09-10T15:52:34.085Z,4.57
2022-09-10T15:55:01.874Z,4.90
2022-09-10T15:57:30.939Z,5.30
2022-09-10T16:00:01.775Z,5.85
2022-09-10T16:02:29.643Z,5.28
2022-09-10T16:05:00.979Z,5.35
2022-09-10T16:07:29.380Z,5.18
2022-09-10T16:09:57.657Z,5.47
2022-09-10T16:12:26.337Z,5.10
2022-09-10T16:14:54.117Z,5.22
2022-09-10T16:19:14.201Z,5.32
2022-09-10T16:21:41.991Z,5.60
2022-09-10T16:24:10.988Z,4.95
2022-09-10T16:26:40.285Z,5.60
2022-09-10T16:29:13.950Z,1.88
2022-09-10T16:31:41.915Z,4.53
2022-09-10T16:34:16.024Z,5.70
2022-09-10T16:36:43.770Z,5.30
2022-09-10T16:39:12.963Z,4.85
2022-09-10T16:42:41.807Z,4.90
2022-09-10T16:45:10.288Z,5.20
2022-09-10T16:47:38.170Z,4.97
2022-09-10T16:50:06.827Z,5.13
2022-09-10T16:52:35.663Z,5.37
2022-09-10T16:55:04.522Z,5.45
2022-09-10T16:57:32.211Z,5.60
2022-09-10T17:00:01.249Z,5.53
2022-09-10T17:02:30.674Z,5.63
2022-09-10T17:04:58.925Z,5.38
2022-09-10T17:07:26.522Z,5.70
2022-09-10T17:09:58.725Z,6.07
2022-09-10T17:12:28.292Z,6.00
2022-09-10T17:14:56.099Z,5.78
2022-09-10T17:17:25.307Z,6.20
2022-09-10T17:19:52.944Z,4.18
2022-09-10T17:22:20.600Z,5.28
2022-09-10T17:24:49.321Z,6.60
2022-09-10T17:27:16.939Z,6.33
2022-09-10T17:29:44.599Z,6.50
2022-09-10T17:32:12.368Z,1.77
2022-09-10T17:34:41.720Z,2.43
2022-09-10T17:37:09.303Z,2.63
2022-09-10T17:39:36.992Z,2.47
2022-09-10T17:42:05.265Z,3.40
2022-09-10T17:44:33.176Z,4.50
2022-09-10T17:47:01.011Z,5.88
2022-09-10T17:49:29.054Z,5.63
2022-09-10T17:51:58.088Z,6.15
2022-09-10T17:54:51.905Z,8.20
2022-09-10T17:57:19.545Z,9.82
2022-09-10T17:59:47.406Z,9.27
2022-09-10T18:02:16.571Z,9.80
2022-09-10T18:04:44.284Z,10.98
2022-09-10T18:07:48.518Z,11.18
2022-09-10T18:10:17.947Z,5.70
2022-09-10T18:12:45.990Z,5.37
2022-09-10T18:16:23.834Z,8.68
2022-09-10T18:18:53.759Z,9.00
2022-09-10T18:21:23.998Z,9.73
2022-09-10T18:23:52.897Z,9.02
2022-09-10T18:26:21.909Z,9.70
2022-09-10T18:28:55.910Z,10.15
2022-09-10T18:31:29.491Z,9.80
2022-09-10T18:33:57.547Z,9.70
2022-09-10T18:36:26.233Z,10.40
2022-09-10T18:38:54.212Z,10.85
2022-09-10T18:41:24.309Z,10.60
2022-09-10T18:43:53.119Z,11.65
2022-09-10T18:46:23.516Z,13.80
2022-09-10T18:48:53.315Z,11.60
2022-09-10T18:51:22.614Z,14.23
2022-09-10T18:53:54.174Z,14.55
2022-09-10T18:56:24.604Z,15.30
2022-09-10T18:58:53.470Z,15.00
2022-09-10T19:01:21.393Z,16.25
2022-09-10T19:03:49.891Z,15.13
2022-09-10T19:06:20.663Z,13.40
2022-09-10T19:08:49.660Z,12.32
2022-09-10T19:11:19.010Z,10.88
2022-09-10T19:13:50.599Z,11.15
2022-09-10T19:16:19.058Z,10.85
2022-09-10T19:18:50.828Z,10.30
2022-09-10T19:21:20.315Z,11.35
2022-09-10T19:23:48.491Z,11.90
2022-09-10T19:26:17.101Z,12.13
2022-09-10T19:28:45.184Z,12.70
2022-09-10T19:31:15.857Z,12.65
2022-09-10T19:33:43.724Z,12.77
2022-09-10T19:36:12.962Z,12.07
2022-09-10T19:38:42.629Z,12.98
2022-09-10T19:41:13.485Z,12.45
2022-09-10T19:43:42.034Z,12.53
2022-09-10T19:46:11.533Z,13.07
2022-09-10T19:48:40.332Z,12.15
2022-09-10T19:51:09.982Z,13.83
2022-09-10T19:53:38.053Z,14.90
2022-09-10T19:56:08.988Z,14.27
2022-09-10T19:58:39.920Z,14.43
2022-09-10T20:01:10.775Z,13.85
2022-09-10T20:03:39.902Z,13.00
2022-09-10T20:06:11.511Z,11.90
2022-09-10T20:08:39.884Z,10.97
2022-09-10T20:11:16.356Z,10.90
2022-09-10T20:13:45.172Z,11.05
2022-09-10T20:16:13.808Z,11.10
2022-09-10T20:18:41.730Z,10.68
2022-09-10T20:21:11.980Z,11.38
2022-09-10T20:23:41.832Z,10.68
2022-09-10T20:26:13.766Z,10.88
2022-09-10T20:28:41.916Z,10.95
2022-09-10T20:31:11.332Z,10.85
2022-09-10T20:33:42.252Z,11.00
2022-09-10T20:36:11.943Z,12.30
2022-09-10T20:38:39.978Z,12.25
2022-09-10T20:41:08.547Z,12.10
2022-09-10T20:43:37.539Z,13.00
2022-09-10T20:46:06.474Z,13.43
2022-09-10T20:48:34.153Z,13.93
2022-09-10T20:51:01.945Z,13.30
2022-09-10T20:53:29.520Z,13.68
2022-09-10T20:56:06.391Z,13.38
2022-09-10T20:58:36.813Z,12.53
2022-09-10T21:01:10.535Z,13.73
2022-09-10T21:03:38.515Z,13.60
2022-09-10T21:06:06.693Z,13.77
2022-09-10T21:08:34.326Z,13.07
2022-09-10T21:11:05.797Z,13.25
2022-09-10T21:13:34.296Z,12.52
2022-09-10T21:16:10.787Z,13.10
2022-09-10T21:18:41.055Z,12.85
2022-09-10T21:21:10.425Z,12.55
2022-09-10T21:23:43.874Z,12.70
2022-09-10T21:26:12.097Z,13.93
2022-09-10T21:28:40.217Z,14.23
2022-09-10T21:31:08.640Z,14.95
2022-09-10T21:33:37.937Z,15.27
2022-09-10T21:36:07.407Z,14.98
2022-09-10T21:38:35.994Z,14.48
2022-09-10T21:41:04.874Z,14.90
2022-09-10T21:43:34.569Z,16.05
2022-09-10T21:46:02.817Z,15.45
2022-09-10T21:48:31.004Z,15.43
2022-09-10T21:51:00.717Z,16.48
2022-09-10T21:53:28.822Z,16.25
2022-09-10T21:55:57.156Z,16.02
2022-09-10T21:58:27.199Z,16.52
2022-09-10T22:00:55.448Z,15.80
2022-09-10T22:03:23.272Z,17.17
2022-09-10T22:05:50.947Z,16.20
2022-09-10T22:08:20.279Z,17.05
2022-09-10T22:10:50.121Z,17.13
2022-09-10T22:13:17.870Z,17.35
2022-09-10T22:15:45.606Z,17.38
2022-09-10T22:18:13.327Z,18.20
2022-09-10T22:20:40.979Z,17.48
2022-09-10T22:23:08.571Z,17.85
2022-09-10T22:25:37.626Z,18.05
2022-09-10T22:28:05.267Z,17.52
2022-09-10T22:30:32.870Z,17.47
2022-09-10T22:33:00.582Z,17.67
2022-09-10T22:35:28.606Z,22.35
2022-09-10T22:37:57.171Z,21.35
2022-09-10T22:40:25.855Z,19.45
2022-09-10T22:42:54.848Z,18.38
2022-09-10T22:45:22.518Z,18.48
2022-09-10T22:47:50.286Z,18.85
2022-09-10T22:50:18.037Z,18.58
2022-09-10T22:52:45.801Z,18.97
2022-09-10T22:55:14.408Z,18.17
2022-09-10T22:57:42.226Z,18.92
2022-09-10T23:00:13.715Z,18.90
2022-09-10T23:02:41.346Z,18.63
2022-09-10T23:05:09.390Z,18.07
2022-09-10T23:07:37.021Z,16.77
2022-09-10T23:10:05.557Z,16.73
2022-09-10T23:12:33.157Z,17.17
2022-09-10T23:15:00.787Z,18.70
2022-09-10T23:17:29.822Z,19.90
2022-09-10T23:19:57.449Z,18.85
2022-09-10T23:22:25.028Z,20.55
2022-09-10T23:24:52.696Z,21.50
2022-09-10T23:27:20.305Z,21.70
2022-09-10T23:29:47.911Z,22.83
2022-09-10T23:32:15.553Z,23.27
2022-09-10T23:34:45.120Z,22.17
2022-09-10T23:37:12.733Z,22.38
2022-09-10T23:39:40.479Z,22.73
2022-09-10T23:42:08.377Z,22.27
2022-09-10T23:44:36.640Z,20.58
2022-09-10T23:47:04.383Z,20.25
2022-09-10T23:49:32.090Z,20.43
2022-09-10T23:52:01.094Z,22.67
2022-09-10T23:54:30.110Z,22.70
2022-09-10T23:56:58.050Z,23.20
2022-09-10T23:59:25.806Z,23.00
